AirNav   TITAN Aviation Fuels
 
 920 users online  

81AZ Hangar 5 Heliport
Scottsdale, Arizona, USA

GOING TO SCOTTSDALE?


FAA INFORMATION EFFECTIVE 08 SEPTEMBER 2022

Location

FAA Identifier: 81AZ
Lat/Long: 33-37-56.0800N 111-54-23.8000W
33-37.934667N 111-54.396667W
33.6322444,-111.9066111
(estimated)
Elevation: 1500 ft. / 457 m (estimated)
From city: 9 miles N of SCOTTSDALE, AZ
Time zone: UTC -7 (year round; does not observe DST)
Zip code: 85260

Heliport Operations

Heliport use: Private use. Permission required prior to landing
Activation date: 03/2011
Control tower: no
ARTCC: ALBUQUERQUE CENTER
FSS: PRESCOTT FLIGHT SERVICE STATION
Attendance: CONTINUOUS
Segmented circle: no

Heliport Communications

WX ASOS at SDL (0.6 nm S): PHONE 480-483-3049
WX ASOS at DVT (9 nm W): 126.5 (623-587-7764)
WX AWOS-1 at 18AZ (11 nm N): 125.625 (480-488-7882)
WX ASOS at PHX (13 nm SW): PHONE 602-231-8557
WX ASOS at FFZ (14 nm SE): PHONE 480-641-4111

Nearby radio navigation aids

VOR radial/distance  VOR name  Freq  Var
PXRr003/12.4PHOENIX VORTAC115.6012E
IWAr314/23.5WILLIE VORTAC113.3013E

Heliport Services

Runway Information

Helipad H1

Dimensions: 40 x 40 ft. / 12 x 12 m
Surface: concrete
Traffic pattern: leftleft

Heliport Ownership and Management from official FAA records

Ownership: Privately-owned
Owner: H5 PRODUCTIONS, INC.
16114 N. 81ST STREET
SCOTTSDALE, AZ 85260
Phone 480-276-5000
Manager: MITCH KELLDORF
16114 N. 81ST STREET
SCOTTSDALE, AZ 85260
Phone 480-276-5000

Heliport Operational Statistics

Aircraft based on the field: 1
Helicopters: 1
    

Additional Remarks

FOR CD CTC PHOENIX APCH AT 602-306-2565.

Instrument Procedures

There are no published instrument procedures at 81AZ.

Some nearby airports with instrument procedures:

KSDL - Scottsdale Airport (1 nm S)
KDVT - Phoenix Deer Valley Airport (9 nm W)
KPHX - Phoenix Sky Harbor International Airport (13 nm SW)
KFFZ - Falcon Field Airport (14 nm SE)
P19 - Stellar Airpark (20 nm S)
 
Loc | Ops | Rwys | IFR | FBO | Links
Com | Nav | Svcs | Stats | Notes
Aerial photo
No photo
 
Sectional chart

 
Airport distance calculator
Flying to Hangar 5 Heliport? Find the distance to fly.

From to 81AZ

Sunrise and sunset
Times for 02-Oct-2022
 Local
(UTC-7)
 Zulu
(UTC)
Morning civil twilight05:5912:59
Sunrise06:2413:24
Sunset18:1001:10
Evening civil twilight18:3501:35

Current date and time
Zulu (UTC)  02-Oct-2022 23:53:55
Local (UTC-7)  02-Oct-2022 16:53:55
 
METAR
KSDL 022253Z 18007KT 150V220 10SM CLR 34/11 A2986 RMK AO2 SLP084 T03440106
KDVT 
9nm W 
022253Z 21005KT 10SM CLR 34/11 A2985 RMK AO2 SLP082 T03390111
KFFZ 
14nm SE 
022254Z AUTO 27008KT 10SM CLR 34/11 A2983 RMK AO2 SLP077 T03440106
KPHX 
14nm SW 
022251Z VRB03KT 10SM FEW100 SCT250 36/11 A2981 RMK AO2 SLP074 CB DSNT NW-N TCU DSNT SE T03560111 $
TAF
KSDL 021720Z 0218/0318 VRB04KT P6SM FEW100 FEW150 FM022100 21007KT P6SM FEW100 FEW150 FM030300 04005KT P6SM FEW100 SCT150 SCT250 FM030800 VRB03KT P6SM FEW100 FEW150
KDVT 
9nm W 
021720Z 0218/0318 18008KT P6SM FEW100 FEW150 FM022200 23009KT P6SM FEW100 FEW150 FM030400 03008KT P6SM FEW100 SCT150 SCT250 FM030900 VRB04KT P6SM FEW100 FEW150
KPHX 
14nm SW 
022102Z 0221/0324 16007KT P6SM FEW100 FEW150 FM022200 21007KT P6SM FEW100 FEW150 FM030000 25006KT P6SM FEW100 FEW150 FM030400 10005KT P6SM FEW100 SCT150 SCT250 FM031700 14008KT P6SM FEW100 FEW150 FM032100 28008KT P6SM FEW100 FEW150
NOTAMs
Click for the latest NOTAMs
NOTAMs are issued by the DoD/FAA and will open in a separate window not controlled by AirNav.

 

 
 

Would you like to see your business listed on this page?

 If your business provides an interesting product or service to pilots, flight crews, aircraft, or users of the Hangar 5 Heliport, you should consider listing it here.  To start the listing process, click on the button below
 
Add a business
 

Other Pages about Hangar 5 Heliport

Update a link
 
Copyright © AirNav, LLC. All rights reserved. Privacy Policy  Contact